createdAt,value
2022-12-29T00:00:08.205Z,95.46
2022-12-29T00:01:09.841Z,95.46
2022-12-29T00:02:11.999Z,95.03
2022-12-29T00:03:13.670Z,95.43
2022-12-29T00:04:16.275Z,94.98
2022-12-29T00:05:17.865Z,95.46
2022-12-29T00:06:19.429Z,95.02
2022-12-29T00:07:20.948Z,94.47
2022-12-29T00:08:40.253Z,94.97
2022-12-29T00:09:42.373Z,95.72
2022-12-29T00:10:43.913Z,96.47
2022-12-29T00:11:45.656Z,96.26
2022-12-29T00:13:05.684Z,95.87
2022-12-29T00:14:26.329Z,95.49
2022-12-29T00:15:40.232Z,95.63
2022-12-29T00:16:44.602Z,96.56
2022-12-29T00:17:46.169Z,96.63
2022-12-29T00:18:48.032Z,96.91
2022-12-29T00:20:08.260Z,97.32
2022-12-29T00:21:36.951Z,98.59
2022-12-29T00:22:57.253Z,98.49
2022-12-29T00:24:17.028Z,98.14
2022-12-29T00:25:37.476Z,98.75
2022-12-29T00:26:57.586Z,98.28
2022-12-29T00:28:18.149Z,99.09
2022-12-29T00:29:38.190Z,98.87
2022-12-29T00:30:58.508Z,99.21
2022-12-29T00:32:18.346Z,99.02
2022-12-29T00:33:41.015Z,99.88
2022-12-29T00:35:01.191Z,99.46
2022-12-29T00:36:28.093Z,99.59
2022-12-29T00:37:48.283Z,99.91
2022-12-29T00:39:12.815Z,99.62
2022-12-29T00:40:33.174Z,99.39
2022-12-29T00:41:53.800Z,100.00
2022-12-29T00:43:13.774Z,99.68
2022-12-29T00:44:16.005Z,99.97
2022-12-29T00:45:17.548Z,99.78
2022-12-29T00:46:20.436Z,100.00
2022-12-29T00:47:22.176Z,100.00
2022-12-29T00:48:42.274Z,100.00
2022-12-29T00:49:43.902Z,100.00
2022-12-29T00:50:45.444Z,100.00
2022-12-29T00:51:47.225Z,100.00
2022-12-29T00:52:48.745Z,100.00
2022-12-29T00:53:50.253Z,100.00
2022-12-29T00:54:51.793Z,100.00
2022-12-29T00:55:53.369Z,100.00
2022-12-29T00:56:55.038Z,100.00
2022-12-29T00:57:56.597Z,100.00
2022-12-29T00:59:02.578Z,100.00
2022-12-29T01:00:04.502Z,100.00
2022-12-29T01:01:08.275Z,100.00
2022-12-29T01:02:11.341Z,100.00
2022-12-29T01:03:13.064Z,99.77
2022-12-29T01:04:15.687Z,99.57
2022-12-29T01:05:17.225Z,99.62
2022-12-29T01:06:19.920Z,98.99
2022-12-29T01:07:21.659Z,98.80
2022-12-29T01:08:23.389Z,98.03
2022-12-29T01:09:43.503Z,97.12
2022-12-29T01:10:45.076Z,97.17
2022-12-29T01:11:46.665Z,96.91
2022-12-29T01:12:48.444Z,96.72
2022-12-29T01:13:49.983Z,97.21
2022-12-29T01:14:51.551Z,97.26
2022-12-29T01:15:54.209Z,96.28
2022-12-29T01:16:56.540Z,95.97
2022-12-29T01:17:58.139Z,95.44
2022-12-29T01:19:00.529Z,95.35
2022-12-29T01:20:03.445Z,95.21
2022-12-29T01:21:07.162Z,95.23
2022-12-29T01:22:08.735Z,95.60
2022-12-29T01:23:10.357Z,95.65
2022-12-29T01:24:12.072Z,95.88
2022-12-29T01:25:13.612Z,96.22
2022-12-29T01:26:17.831Z,96.72
2022-12-29T01:27:19.698Z,97.02
2022-12-29T01:28:25.896Z,97.33
2022-12-29T01:29:27.985Z,97.61
2022-12-29T01:30:29.577Z,98.12
2022-12-29T01:31:31.280Z,98.47
2022-12-29T01:32:32.902Z,98.87
2022-12-29T01:33:34.518Z,98.84
2022-12-29T01:34:36.098Z,98.52
2022-12-29T01:35:37.615Z,98.84
2022-12-29T01:36:39.211Z,98.25
2022-12-29T01:37:40.729Z,98.48
2022-12-29T01:38:42.922Z,99.18
2022-12-29T01:39:44.744Z,98.89
2022-12-29T01:40:47.332Z,98.85
2022-12-29T01:41:48.920Z,99.00
2022-12-29T01:42:50.509Z,98.32
2022-12-29T01:43:57.555Z,98.47
2022-12-29T01:45:02.684Z,98.43
2022-12-29T01:46:04.297Z,97.59
2022-12-29T01:47:07.108Z,98.21
2022-12-29T01:48:10.864Z,99.17
2022-12-29T01:49:17.432Z,99.14
2022-12-29T01:50:35.375Z,99.98
2022-12-29T01:51:40.097Z,99.74
2022-12-29T01:52:47.701Z,99.14
2022-12-29T01:53:49.362Z,99.52
2022-12-29T01:54:54.846Z,99.28
2022-12-29T01:56:02.048Z,98.76
2022-12-29T01:57:09.198Z,98.66
2022-12-29T01:58:14.776Z,98.32
2022-12-29T01:59:21.923Z,98.74
2022-12-29T02:00:23.677Z,99.33
2022-12-29T02:01:25.480Z,100.00
2022-12-29T02:02:32.464Z,99.58
2022-12-29T02:03:35.987Z,100.00
2022-12-29T02:04:45.232Z,100.00
2022-12-29T02:06:03.372Z,100.00
2022-12-29T02:07:10.972Z,100.00
2022-12-29T02:08:13.501Z,100.00
2022-12-29T02:09:15.041Z,100.00
2022-12-29T02:10:16.805Z,100.00
2022-12-29T02:11:20.049Z,100.00
2022-12-29T02:12:24.610Z,100.00
2022-12-29T02:13:26.647Z,100.00
2022-12-29T02:14:28.182Z,100.00
2022-12-29T02:15:49.998Z,100.00
2022-12-29T02:17:18.847Z,100.00
2022-12-29T02:18:44.638Z,100.00
2022-12-29T02:20:04.484Z,100.00
2022-12-29T02:21:43.481Z,100.00
2022-12-29T02:23:08.418Z,100.00
2022-12-29T02:24:35.018Z,100.00
2022-12-29T02:25:51.763Z,100.00
2022-12-29T02:26:56.306Z,100.00
2022-12-29T02:28:16.699Z,100.00
2022-12-29T02:29:35.623Z,100.00
2022-12-29T02:30:55.982Z,100.00
2022-12-29T02:32:06.802Z,100.00
2022-12-29T02:33:44.196Z,100.00
2022-12-29T02:35:07.135Z,99.96
2022-12-29T02:36:36.942Z,99.34
2022-12-29T02:37:44.318Z,98.19
2022-12-29T02:39:14.911Z,97.17
2022-12-29T02:40:45.742Z,96.72
2022-12-29T02:42:19.198Z,96.48
2022-12-29T02:43:21.229Z,96.52
2022-12-29T02:44:43.315Z,96.55
2022-12-29T02:46:04.357Z,96.72
2022-12-29T02:47:10.544Z,96.43
2022-12-29T02:48:19.056Z,96.87
2022-12-29T02:49:28.810Z,97.12
2022-12-29T02:50:45.248Z,97.15
2022-12-29T02:51:49.324Z,97.92
2022-12-29T02:52:58.061Z,98.51
2022-12-29T02:54:18.833Z,98.33
2022-12-29T02:55:20.444Z,98.92
2022-12-29T02:56:22.781Z,98.60
2022-12-29T02:57:24.332Z,98.06
2022-12-29T02:58:25.992Z,97.89
2022-12-29T02:59:27.777Z,97.29
2022-12-29T03:00:29.794Z,96.60
2022-12-29T03:02:17.382Z,96.13
2022-12-29T03:03:30.742Z,95.88
2022-12-29T03:04:38.089Z,95.41
2022-12-29T03:06:17.296Z,95.18
2022-12-29T03:07:41.194Z,95.97
2022-12-29T03:08:50.730Z,96.23
2022-12-29T03:10:22.875Z,97.22
2022-12-29T03:11:50.966Z,97.60
2022-12-29T03:13:24.168Z,99.36
2022-12-29T03:14:51.692Z,99.20
2022-12-29T03:16:08.319Z,100.00
2022-12-29T03:17:20.781Z,100.00
2022-12-29T03:18:58.387Z,100.00
2022-12-29T03:20:08.749Z,100.00
2022-12-29T03:21:45.300Z,100.00
2022-12-29T03:22:50.619Z,100.00
2022-12-29T03:23:52.512Z,100.00
2022-12-29T03:25:00.212Z,100.00
2022-12-29T03:26:07.995Z,100.00
2022-12-29T03:27:14.773Z,100.00
2022-12-29T03:28:22.908Z,100.00
2022-12-29T03:29:25.578Z,100.00
2022-12-29T03:30:29.593Z,100.00
2022-12-29T03:31:31.427Z,100.00
2022-12-29T03:32:43.106Z,99.91
2022-12-29T03:33:46.429Z,99.87
2022-12-29T03:34:50.012Z,100.00
2022-12-29T03:35:55.394Z,100.00
2022-12-29T03:37:09.191Z,100.00
2022-12-29T03:38:14.901Z,100.00
2022-12-29T03:39:19.524Z,100.00
2022-12-29T03:40:23.987Z,100.00
2022-12-29T03:41:29.614Z,100.00
2022-12-29T03:42:35.022Z,100.00
2022-12-29T03:43:36.796Z,100.00
2022-12-29T03:44:41.084Z,100.00
2022-12-29T03:45:42.695Z,100.00
2022-12-29T03:46:44.350Z,100.00
2022-12-29T03:47:46.010Z,100.00
2022-12-29T03:48:47.538Z,100.00
2022-12-29T03:49:50.289Z,100.00
2022-12-29T03:50:51.862Z,100.00
2022-12-29T03:51:53.432Z,100.00
2022-12-29T03:52:54.979Z,100.00
2022-12-29T03:53:56.763Z,100.00
2022-12-29T03:54:58.312Z,100.00
2022-12-29T03:55:59.921Z,100.00
2022-12-29T03:57:01.532Z,100.00
2022-12-29T03:58:03.142Z,100.00
2022-12-29T03:59:04.671Z,100.00
2022-12-29T04:00:07.513Z,100.00
2022-12-29T04:01:09.270Z,100.00
2022-12-29T04:02:10.937Z,100.00
2022-12-29T04:03:12.589Z,100.00
2022-12-29T04:04:14.256Z,100.00
2022-12-29T04:05:16.189Z,100.00
2022-12-29T04:06:17.761Z,100.00
2022-12-29T04:07:19.350Z,100.00
2022-12-29T04:08:20.911Z,100.00
2022-12-29T04:09:22.428Z,100.00
2022-12-29T04:10:24.056Z,100.00
2022-12-29T04:11:31.231Z,100.00
2022-12-29T04:12:34.665Z,100.00
2022-12-29T04:13:36.229Z,100.00
2022-12-29T04:14:37.785Z,100.00
2022-12-29T04:15:39.409Z,100.00
2022-12-29T04:16:41.191Z,100.00
2022-12-29T04:17:42.951Z,100.00
2022-12-29T04:18:44.469Z,100.00
2022-12-29T04:19:46.063Z,100.00
2022-12-29T04:21:03.902Z,100.00
2022-12-29T04:22:05.565Z,100.00
2022-12-29T04:23:07.984Z,100.00
2022-12-29T04:24:09.626Z,100.00
2022-12-29T04:25:11.192Z,100.00
2022-12-29T04:26:12.909Z,100.00
2022-12-29T04:27:14.439Z,100.00
2022-12-29T04:28:17.272Z,100.00
2022-12-29T04:29:20.583Z,100.00
2022-12-29T04:30:22.108Z,100.00
2022-12-29T04:31:23.737Z,100.00
2022-12-29T04:32:25.380Z,100.00
2022-12-29T04:33:27.007Z,100.00
2022-12-29T04:34:28.534Z,100.00
2022-12-29T04:35:30.101Z,100.00
2022-12-29T04:36:31.693Z,100.00
2022-12-29T04:37:33.292Z,100.00
2022-12-29T04:38:35.770Z,100.00
2022-12-29T04:39:37.334Z,100.00
2022-12-29T04:40:40.743Z,100.00
2022-12-29T04:41:42.270Z,100.00
2022-12-29T04:42:43.813Z,100.00
2022-12-29T04:43:45.420Z,100.00
2022-12-29T04:44:47.067Z,100.00
2022-12-29T04:45:48.902Z,100.00
2022-12-29T04:46:50.488Z,100.00
2022-12-29T04:47:52.046Z,100.00
2022-12-29T04:48:53.685Z,100.00
2022-12-29T04:49:55.275Z,100.00
2022-12-29T04:50:56.843Z,100.00
2022-12-29T04:51:58.398Z,100.00
2022-12-29T04:52:59.917Z,100.00
2022-12-29T04:54:01.494Z,100.00
2022-12-29T04:55:03.221Z,100.00
2022-12-29T04:56:05.185Z,100.00
2022-12-29T04:57:06.796Z,100.00
2022-12-29T04:58:08.387Z,100.00
2022-12-29T04:59:09.956Z,100.00
2022-12-29T05:00:12.276Z,99.94
2022-12-29T05:01:14.026Z,99.58
2022-12-29T05:02:16.687Z,98.84
2022-12-29T05:03:20.293Z,98.30
2022-12-29T05:04:22.018Z,98.37
2022-12-29T05:05:23.647Z,98.45
2022-12-29T05:06:25.221Z,97.82
2022-12-29T05:07:26.862Z,97.92
2022-12-29T05:08:28.800Z,97.02
2022-12-29T05:09:30.935Z,96.73
2022-12-29T05:10:32.536Z,96.70
2022-12-29T05:11:34.061Z,96.64
2022-12-29T05:12:38.167Z,95.89
2022-12-29T05:13:39.767Z,96.03
2022-12-29T05:14:41.408Z,95.73
2022-12-29T05:15:56.420Z,95.14
2022-12-29T05:17:54.424Z,94.27
2022-12-29T05:18:56.013Z,93.24
2022-12-29T05:19:57.704Z,92.95
2022-12-29T05:20:59.763Z,92.86
2022-12-29T05:22:01.428Z,93.05
2022-12-29T05:23:03.076Z,93.41
2022-12-29T05:24:05.016Z,93.82
2022-12-29T05:25:06.909Z,93.70
2022-12-29T05:26:08.608Z,93.95
2022-12-29T05:27:10.227Z,93.49
2022-12-29T05:28:11.830Z,93.36
2022-12-29T05:29:13.437Z,93.82
2022-12-29T05:30:15.111Z,94.36
2022-12-29T05:31:16.702Z,95.32
2022-12-29T05:32:18.970Z,96.53
2022-12-29T05:33:20.654Z,96.44
2022-12-29T05:34:22.299Z,96.41
2022-12-29T05:35:23.939Z,97.08
2022-12-29T05:36:25.619Z,97.27
2022-12-29T05:37:27.140Z,97.92
2022-12-29T05:38:28.680Z,98.05
2022-12-29T05:39:30.474Z,98.01
2022-12-29T05:40:32.009Z,98.43
2022-12-29T05:41:35.302Z,98.30
2022-12-29T05:42:36.873Z,98.32
2022-12-29T05:43:38.399Z,98.73
2022-12-29T05:44:39.906Z,98.71
2022-12-29T05:45:41.465Z,99.16
2022-12-29T05:46:43.109Z,98.73
2022-12-29T05:47:44.714Z,98.95
2022-12-29T05:48:46.249Z,99.51
2022-12-29T05:49:47.843Z,99.47
2022-12-29T05:50:50.860Z,100.00
2022-12-29T05:52:44.950Z,100.00
2022-12-29T05:53:46.776Z,99.88
2022-12-29T05:54:48.345Z,99.94
2022-12-29T05:55:50.597Z,100.00
2022-12-29T05:56:52.189Z,99.82
2022-12-29T05:57:53.812Z,99.43
2022-12-29T05:58:55.404Z,99.19
2022-12-29T05:59:56.956Z,99.47
2022-12-29T06:00:58.543Z,99.59
2022-12-29T06:02:00.299Z,99.56
2022-12-29T06:03:02.609Z,99.62
2022-12-29T06:04:04.558Z,99.52
2022-12-29T06:05:06.465Z,99.08
2022-12-29T06:06:08.164Z,99.03
2022-12-29T06:07:09.727Z,99.15
2022-12-29T06:08:11.244Z,99.31
2022-12-29T06:09:12.890Z,99.06
2022-12-29T06:10:14.496Z,99.01
2022-12-29T06:11:16.091Z,98.57
2022-12-29T06:12:17.708Z,98.17
2022-12-29T06:13:19.299Z,98.60
2022-12-29T06:14:21.296Z,98.22
2022-12-29T06:15:23.010Z,97.95
2022-12-29T06:16:24.853Z,97.52
2022-12-29T06:17:26.479Z,98.14
2022-12-29T06:18:28.115Z,97.93
2022-12-29T06:19:29.638Z,97.66
2022-12-29T06:20:31.157Z,97.89
2022-12-29T06:21:32.708Z,97.32
2022-12-29T06:22:34.360Z,97.40
2022-12-29T06:23:35.964Z,97.17
2022-12-29T06:24:37.569Z,97.19
2022-12-29T06:25:39.108Z,96.90
2022-12-29T06:26:41.256Z,97.22
2022-12-29T06:27:43.199Z,96.34
2022-12-29T06:28:44.715Z,96.46
2022-12-29T06:29:47.133Z,96.27
2022-12-29T06:30:49.653Z,96.34
2022-12-29T06:31:52.161Z,96.24
2022-12-29T06:32:53.926Z,95.84
2022-12-29T06:33:55.489Z,96.28
2022-12-29T06:34:57.025Z,96.05
2022-12-29T06:35:58.564Z,96.08
2022-12-29T06:37:00.203Z,95.78
2022-12-29T06:38:01.837Z,95.60
2022-12-29T06:39:03.455Z,95.63
2022-12-29T06:40:05.530Z,95.44
2022-12-29T06:41:07.130Z,95.50
2022-12-29T06:42:10.293Z,95.31
2022-12-29T06:43:12.015Z,95.67
2022-12-29T06:44:13.576Z,95.48
2022-12-29T06:45:15.194Z,95.12
2022-12-29T06:46:16.822Z,95.12
2022-12-29T06:47:19.524Z,94.67
2022-12-29T06:48:21.155Z,94.64
2022-12-29T06:49:22.739Z,94.70
2022-12-29T06:50:24.340Z,94.67
2022-12-29T06:51:25.919Z,94.80
2022-12-29T06:52:29.516Z,94.31
2022-12-29T06:53:31.068Z,100.00
2022-12-29T06:54:34.431Z,99.01
2022-12-29T06:55:36.251Z,95.31
2022-12-29T06:56:37.862Z,93.61
2022-12-29T06:57:39.452Z,93.85
2022-12-29T06:58:41.095Z,93.08
2022-12-29T06:59:42.670Z,92.84
2022-12-29T07:00:44.326Z,93.26
2022-12-29T07:01:46.014Z,92.77
2022-12-29T07:02:47.783Z,92.68
2022-12-29T07:03:49.568Z,92.70
2022-12-29T07:04:51.157Z,92.71
2022-12-29T07:05:52.710Z,93.56
2022-12-29T07:06:57.169Z,93.89
2022-12-29T07:07:59.141Z,93.43
2022-12-29T07:09:00.747Z,92.87
2022-12-29T07:10:02.310Z,92.83
2022-12-29T07:11:03.955Z,92.40
2022-12-29T07:12:05.727Z,92.13
2022-12-29T07:13:08.798Z,92.42
2022-12-29T07:14:12.024Z,92.49
2022-12-29T07:15:13.833Z,92.65
2022-12-29T07:16:15.575Z,92.99
2022-12-29T07:17:17.121Z,92.89
2022-12-29T07:18:18.819Z,92.71
2022-12-29T07:19:20.466Z,92.99
2022-12-29T07:20:26.778Z,92.75
2022-12-29T07:21:28.652Z,92.04
2022-12-29T07:22:30.161Z,91.10
2022-12-29T07:23:32.236Z,91.04
2022-12-29T07:24:33.820Z,90.77
2022-12-29T07:25:36.950Z,90.55
2022-12-29T07:26:38.567Z,90.20
2022-12-29T07:27:40.124Z,90.12
2022-12-29T07:28:42.874Z,89.87
2022-12-29T07:29:44.468Z,89.95
2022-12-29T07:30:47.083Z,90.73
2022-12-29T07:31:48.688Z,90.33
2022-12-29T07:32:50.358Z,91.40
2022-12-29T07:33:51.944Z,90.60
2022-12-29T07:34:53.623Z,90.67
2022-12-29T07:35:55.218Z,90.71
2022-12-29T07:36:56.888Z,90.40
2022-12-29T07:37:58.518Z,89.50
2022-12-29T07:39:00.150Z,90.03
2022-12-29T07:40:04.540Z,90.67
2022-12-29T07:41:06.412Z,90.63
2022-12-29T07:42:08.118Z,90.75
2022-12-29T07:43:09.848Z,90.59
2022-12-29T07:44:11.431Z,90.91
2022-12-29T07:45:13.175Z,90.49
2022-12-29T07:46:55.947Z,90.06
2022-12-29T07:47:36.362Z,89.64
2022-12-29T07:48:38.151Z,89.84
2022-12-29T07:49:39.764Z,89.94
2022-12-29T07:50:41.335Z,90.14
2022-12-29T07:51:42.919Z,90.52
2022-12-29T07:52:45.820Z,90.19
2022-12-29T07:53:47.365Z,90.13
2022-12-29T07:54:48.906Z,90.74
2022-12-29T07:55:50.485Z,92.03
2022-12-29T07:56:52.403Z,91.73
2022-12-29T07:57:55.331Z,91.09
2022-12-29T07:58:56.920Z,90.93
2022-12-29T07:59:58.619Z,90.72
2022-12-29T08:01:00.402Z,89.84
2022-12-29T08:02:02.214Z,89.92
2022-12-29T08:03:03.983Z,89.27
2022-12-29T08:04:06.434Z,89.27
2022-12-29T08:05:08.356Z,88.95
2022-12-29T08:06:11.632Z,89.17
2022-12-29T08:07:13.246Z,89.53
2022-12-29T08:08:14.803Z,89.67
2022-12-29T08:09:21.953Z,89.83
2022-12-29T08:10:24.689Z,89.55
2022-12-29T08:11:26.207Z,90.02
2022-12-29T08:12:27.832Z,89.62
2022-12-29T08:13:29.395Z,90.44
2022-12-29T08:14:31.049Z,90.64
2022-12-29T08:15:32.890Z,89.72
2022-12-29T08:16:34.591Z,89.88
2022-12-29T08:17:36.266Z,90.66
2022-12-29T08:18:37.819Z,91.16
2022-12-29T08:19:39.646Z,92.18
2022-12-29T08:20:41.578Z,93.38
2022-12-29T08:21:43.223Z,94.13
2022-12-29T08:22:44.732Z,95.22
2022-12-29T08:23:46.269Z,94.90
2022-12-29T08:24:47.896Z,95.25
2022-12-29T08:25:58.536Z,95.90
2022-12-29T08:27:06.281Z,95.16
2022-12-29T08:28:13.694Z,96.86
2022-12-29T08:29:15.269Z,97.00
2022-12-29T08:30:17.487Z,96.89
2022-12-29T08:31:19.161Z,96.74
2022-12-29T08:32:20.911Z,96.43
2022-12-29T08:33:22.510Z,95.57
2022-12-29T08:34:24.157Z,95.56
2022-12-29T08:35:25.876Z,94.74
2022-12-29T08:36:27.464Z,94.32
2022-12-29T08:37:31.294Z,94.16
2022-12-29T08:38:33.456Z,93.49
2022-12-29T08:39:35.457Z,91.90
2022-12-29T08:40:36.980Z,92.31
2022-12-29T08:41:38.579Z,92.55
2022-12-29T08:42:40.307Z,93.14
2022-12-29T08:43:41.881Z,92.70
2022-12-29T08:44:43.636Z,92.95
2022-12-29T08:45:45.246Z,92.59
2022-12-29T08:46:46.864Z,92.63
2022-12-29T08:47:48.446Z,92.46
2022-12-29T08:48:50.011Z,92.60
2022-12-29T08:49:51.559Z,92.31
2022-12-29T08:50:53.220Z,92.60
2022-12-29T08:51:54.887Z,91.93
2022-12-29T08:52:56.496Z,91.32
2022-12-29T08:53:58.161Z,90.70
2022-12-29T08:54:59.724Z,90.59
2022-12-29T08:56:05.144Z,89.89
2022-12-29T08:57:07.308Z,90.37
2022-12-29T08:58:08.896Z,90.32
2022-12-29T08:59:10.448Z,90.37
2022-12-29T09:00:12.364Z,89.25
2022-12-29T09:01:14.282Z,89.61
2022-12-29T09:02:22.060Z,90.67
2022-12-29T09:04:03.788Z,90.18
2022-12-29T09:04:48.111Z,89.89
2022-12-29T09:05:50.826Z,89.23
2022-12-29T09:06:52.392Z,88.90
2022-12-29T09:07:53.960Z,88.68
2022-12-29T09:08:56.472Z,89.23
2022-12-29T09:09:58.071Z,89.14
2022-12-29T09:11:11.828Z,89.76
2022-12-29T09:12:13.531Z,89.96
2022-12-29T09:13:16.453Z,89.45
2022-12-29T09:14:18.024Z,88.59
2022-12-29T09:15:19.543Z,88.36
2022-12-29T09:16:23.686Z,88.28
2022-12-29T09:17:44.563Z,88.33
2022-12-29T09:18:46.492Z,88.71
2022-12-29T09:19:48.121Z,88.56
2022-12-29T09:20:49.693Z,87.09
2022-12-29T09:21:51.237Z,87.59
2022-12-29T09:22:52.772Z,87.41
2022-12-29T09:23:54.359Z,86.88
2022-12-29T09:24:55.906Z,85.20
2022-12-29T09:25:57.789Z,85.79
2022-12-29T09:26:59.321Z,85.15
2022-12-29T09:28:00.912Z,85.15
2022-12-29T09:29:02.422Z,84.63
2022-12-29T09:30:05.427Z,84.49
2022-12-29T09:31:07.613Z,84.62
2022-12-29T09:32:13.922Z,85.61
2022-12-29T09:33:19.393Z,85.11
2022-12-29T09:34:20.980Z,84.94
2022-12-29T09:35:22.573Z,84.28
2022-12-29T09:36:24.102Z,82.98
2022-12-29T09:37:25.845Z,83.87
2022-12-29T09:38:28.424Z,82.13
2022-12-29T09:39:30.030Z,81.77
2022-12-29T09:40:34.219Z,82.09
2022-12-29T09:41:44.150Z,82.01
2022-12-29T09:42:59.170Z,81.62
2022-12-29T09:44:34.643Z,82.34
2022-12-29T09:45:44.540Z,82.19
2022-12-29T09:46:50.760Z,81.64
2022-12-29T09:47:52.961Z,81.16
2022-12-29T09:49:00.106Z,81.83
2022-12-29T09:50:12.282Z,82.61
2022-12-29T09:51:18.294Z,81.91
2022-12-29T09:52:32.444Z,82.14
2022-12-29T09:54:03.415Z,82.35
2022-12-29T09:55:14.344Z,83.30
2022-12-29T09:56:22.813Z,82.36
2022-12-29T09:57:37.049Z,82.43
2022-12-29T09:59:01.141Z,81.54
2022-12-29T10:00:13.925Z,80.90
2022-12-29T10:01:42.624Z,80.15
2022-12-29T10:02:50.104Z,80.67
2022-12-29T10:03:54.357Z,80.14
2022-12-29T10:04:55.993Z,80.68
2022-12-29T10:06:08.991Z,81.15
2022-12-29T10:07:31.954Z,80.72
2022-12-29T10:08:40.454Z,80.04
2022-12-29T10:10:11.196Z,80.58
2022-12-29T10:11:32.568Z,81.12
2022-12-29T10:12:48.624Z,80.63
2022-12-29T10:14:15.735Z,80.85
2022-12-29T10:16:00.925Z,79.55
2022-12-29T10:17:34.388Z,79.17
2022-12-29T10:18:38.689Z,79.71
2022-12-29T10:20:36.352Z,79.22
2022-12-29T10:22:11.685Z,79.01
2022-12-29T10:23:33.327Z,79.53
2022-12-29T10:24:38.815Z,79.47
2022-12-29T10:25:43.179Z,79.99
2022-12-29T10:26:46.839Z,79.80
2022-12-29T10:27:50.150Z,78.81
2022-12-29T10:28:54.874Z,79.80
2022-12-29T10:29:57.340Z,79.81
2022-12-29T10:31:06.754Z,80.98
2022-12-29T10:32:33.235Z,79.90
2022-12-29T10:33:41.521Z,79.65
2022-12-29T10:34:48.317Z,79.54
2022-12-29T10:35:51.108Z,79.19
2022-12-29T10:36:59.659Z,79.88
2022-12-29T10:38:13.180Z,79.36
2022-12-29T10:39:29.614Z,81.17
2022-12-29T10:40:58.738Z,82.26
2022-12-29T10:42:27.332Z,81.06
2022-12-29T10:43:38.327Z,80.96
2022-12-29T10:44:39.939Z,81.46
2022-12-29T10:45:41.637Z,82.56
2022-12-29T10:46:44.953Z,82.07
2022-12-29T10:48:00.673Z,81.15
2022-12-29T10:49:02.919Z,81.73
2022-12-29T10:50:05.650Z,81.48
2022-12-29T10:51:09.641Z,80.06
2022-12-29T10:52:12.828Z,80.27
2022-12-29T10:53:22.972Z,80.46
2022-12-29T10:54:34.384Z,80.83
2022-12-29T10:55:39.172Z,80.86
2022-12-29T10:56:46.035Z,80.81
2022-12-29T10:57:48.785Z,79.43
2022-12-29T10:58:51.687Z,79.91
2022-12-29T10:59:53.336Z,79.95
2022-12-29T11:00:55.885Z,80.33
2022-12-29T11:02:12.824Z,81.15
2022-12-29T11:03:27.949Z,80.84
2022-12-29T11:04:54.169Z,81.11
2022-12-29T11:06:22.472Z,79.93
2022-12-29T11:07:27.270Z,80.53
2022-12-29T11:08:42.057Z,80.65
2022-12-29T11:09:44.510Z,80.03
2022-12-29T11:10:47.242Z,78.15
2022-12-29T11:11:48.885Z,78.70
2022-12-29T11:12:58.013Z,79.14
2022-12-29T11:14:26.966Z,79.07
2022-12-29T11:15:28.902Z,80.18
2022-12-29T11:16:35.848Z,79.66
2022-12-29T11:17:57.109Z,79.18
2022-12-29T11:18:59.408Z,78.39
2022-12-29T11:20:28.356Z,78.25
2022-12-29T11:21:41.434Z,78.71
2022-12-29T11:22:45.223Z,78.48
2022-12-29T11:23:57.385Z,79.62
2022-12-29T11:25:11.267Z,79.98
2022-12-29T11:26:23.905Z,79.47
2022-12-29T11:27:27.335Z,78.98
2022-12-29T11:28:31.655Z,79.51
2022-12-29T11:29:43.863Z,78.79
2022-12-29T11:30:45.459Z,79.57
2022-12-29T11:31:52.795Z,78.53
2022-12-29T11:32:56.312Z,77.97
2022-12-29T11:33:57.888Z,78.25
2022-12-29T11:35:00.131Z,77.85
2022-12-29T11:36:14.945Z,78.01
2022-12-29T11:37:28.141Z,77.39
2022-12-29T11:38:37.134Z,77.86
2022-12-29T11:39:50.943Z,77.10
2022-12-29T11:40:52.868Z,77.91
2022-12-29T11:41:55.007Z,77.52
2022-12-29T11:43:03.590Z,75.96
2022-12-29T11:44:06.858Z,76.01
2022-12-29T11:45:17.560Z,76.22
2022-12-29T11:46:24.864Z,75.73
2022-12-29T11:47:32.926Z,76.74
2022-12-29T11:48:41.610Z,76.31
2022-12-29T11:49:51.204Z,75.21
2022-12-29T11:51:01.966Z,75.80
2022-12-29T11:52:03.736Z,75.74
2022-12-29T11:53:28.002Z,75.47
2022-12-29T11:54:37.240Z,75.52
2022-12-29T11:55:38.870Z,75.40
2022-12-29T11:56:43.472Z,75.23
2022-12-29T11:57:45.984Z,75.01
2022-12-29T11:58:50.380Z,74.87
2022-12-29T11:59:57.142Z,76.39
2022-12-29T12:01:03.385Z,76.30
2022-12-29T12:02:16.138Z,74.60
2022-12-29T12:03:23.759Z,75.14
2022-12-29T12:04:35.321Z,75.07
2022-12-29T12:05:46.458Z,75.58
2022-12-29T12:07:10.065Z,75.62
2022-12-29T12:08:24.373Z,75.79
2022-12-29T12:09:35.550Z,75.25
2022-12-29T12:10:45.909Z,74.13
2022-12-29T12:11:48.233Z,74.94
2022-12-29T12:12:57.398Z,74.65
2022-12-29T12:14:13.013Z,74.68
2022-12-29T12:15:23.115Z,74.67
2022-12-29T12:16:40.841Z,73.69
2022-12-29T12:17:56.497Z,73.75
2022-12-29T12:19:04.909Z,74.11
2022-12-29T12:20:19.231Z,74.64
2022-12-29T12:21:45.433Z,74.65
2022-12-29T12:23:06.718Z,74.12
2022-12-29T12:24:40.377Z,73.68
2022-12-29T12:25:53.092Z,75.32
2022-12-29T12:27:20.428Z,74.31
2022-12-29T12:28:36.970Z,74.08
2022-12-29T12:29:56.398Z,74.62
2022-12-29T12:31:01.042Z,75.19
2022-12-29T12:32:16.197Z,75.14
2022-12-29T12:33:28.975Z,74.25
2022-12-29T12:34:38.092Z,73.47
2022-12-29T12:36:03.809Z,73.31
2022-12-29T12:37:53.207Z,73.96
2022-12-29T12:39:12.236Z,74.96
2022-12-29T12:40:19.943Z,75.31
2022-12-29T12:41:27.340Z,74.73
2022-12-29T12:42:44.171Z,74.18
2022-12-29T12:43:52.041Z,74.90
2022-12-29T12:45:21.041Z,74.92
2022-12-29T12:46:50.177Z,74.90
2022-12-29T12:47:59.440Z,74.47
2022-12-29T12:49:35.353Z,74.88
2022-12-29T12:51:08.218Z,75.08
2022-12-29T12:52:16.041Z,74.91
2022-12-29T12:53:26.330Z,75.16
2022-12-29T12:55:11.925Z,76.21
2022-12-29T12:56:25.739Z,75.71
2022-12-29T12:57:48.910Z,76.20
2022-12-29T12:58:50.426Z,75.91
2022-12-29T13:00:01.946Z,75.80
2022-12-29T13:01:23.720Z,75.66
2022-12-29T13:02:59.282Z,77.15
2022-12-29T13:04:37.784Z,77.18
2022-12-29T13:05:56.532Z,76.68
2022-12-29T13:07:35.327Z,77.13
2022-12-29T13:09:03.047Z,77.45
2022-12-29T13:10:34.083Z,77.96
2022-12-29T13:11:38.233Z,77.70
2022-12-29T13:12:56.547Z,77.87
2022-12-29T13:14:22.525Z,78.09
2022-12-29T13:15:30.042Z,77.76
2022-12-29T13:16:37.557Z,77.70
2022-12-29T13:17:54.910Z,78.39
2022-12-29T13:19:11.641Z,77.89
2022-12-29T13:20:40.345Z,76.69
2022-12-29T13:22:03.879Z,76.86
2022-12-29T13:23:24.437Z,77.63
2022-12-29T13:24:41.289Z,76.85
2022-12-29T13:25:51.438Z,77.12
2022-12-29T13:27:19.452Z,77.33
2022-12-29T13:28:50.812Z,78.16
2022-12-29T13:30:11.167Z,77.35
2022-12-29T13:31:17.017Z,78.13
2022-12-29T13:32:35.237Z,78.09
2022-12-29T13:33:46.310Z,77.16
2022-12-29T13:34:54.609Z,77.12
2022-12-29T13:36:02.472Z,77.44
2022-12-29T13:37:15.757Z,77.45
2022-12-29T13:38:40.336Z,77.98
2022-12-29T13:39:55.574Z,77.22
2022-12-29T13:41:03.191Z,77.00
2022-12-29T13:42:06.351Z,76.57
2022-12-29T13:43:08.311Z,76.91
2022-12-29T13:44:17.465Z,76.78
2022-12-29T13:45:25.830Z,77.29
2022-12-29T13:46:47.724Z,76.68
2022-12-29T13:47:53.551Z,76.46
2022-12-29T13:49:07.583Z,76.99
2022-12-29T13:50:22.045Z,76.67
2022-12-29T13:51:28.107Z,77.12
2022-12-29T13:52:44.027Z,77.43
2022-12-29T13:54:13.318Z,76.86
2022-12-29T13:55:41.655Z,76.93
2022-12-29T13:57:09.557Z,77.10
2022-12-29T13:58:33.181Z,77.20
2022-12-29T13:59:45.424Z,76.91
2022-12-29T14:00:59.395Z,76.74
2022-12-29T14:02:10.933Z,76.87
2022-12-29T14:03:31.298Z,77.15
2022-12-29T14:04:35.963Z,76.79
2022-12-29T14:05:37.515Z,76.64
2022-12-29T14:06:41.670Z,76.87
2022-12-29T14:07:43.525Z,77.31
2022-12-29T14:08:46.088Z,76.35
2022-12-29T14:09:52.905Z,76.94
2022-12-29T14:10:54.657Z,76.68
2022-12-29T14:11:56.215Z,76.84
2022-12-29T14:13:04.196Z,76.29
2022-12-29T14:14:19.941Z,76.67
2022-12-29T14:15:25.327Z,76.77
2022-12-29T14:16:35.555Z,77.34
2022-12-29T14:17:38.837Z,77.13
2022-12-29T14:18:44.903Z,77.15
2022-12-29T14:19:47.188Z,77.79
2022-12-29T14:21:12.816Z,77.25
2022-12-29T14:22:14.372Z,77.32
2022-12-29T14:23:26.561Z,78.46
2022-12-29T14:24:39.806Z,77.90
2022-12-29T14:26:06.362Z,78.74
2022-12-29T14:27:10.878Z,78.97